sensor_id;sensor_type;location;lat;lon;timestamp;pressure;altitude;pressure_sealevel;temperature;humidity
76728;BME280;65652;53.132;18.026;2023-03-04T00:00:47;100844.70;;;2.35;73.98
76728;BME280;65652;53.132;18.026;2023-03-04T00:03:19;100840.34;;;2.35;73.91
76728;BME280;65652;53.132;18.026;2023-03-04T00:05:45;100827.08;;;2.35;73.79
76728;BME280;65652;53.132;18.026;2023-03-04T00:08:12;100814.00;;;2.36;73.60
76728;BME280;65652;53.132;18.026;2023-03-04T00:10:38;100806.69;;;2.36;73.52
76728;BME280;65652;53.132;18.026;2023-03-04T00:13:05;100792.98;;;2.34;73.23
76728;BME280;65652;53.132;18.026;2023-03-04T00:15:31;100785.89;;;2.33;73.21
76728;BME280;65652;53.132;18.026;2023-03-04T00:17:57;100775.69;;;2.32;73.14
76728;BME280;65652;53.132;18.026;2023-03-04T00:20:23;100773.66;;;2.31;72.98
76728;BME280;65652;53.132;18.026;2023-03-04T00:22:49;100768.13;;;2.30;73.08
76728;BME280;65652;53.132;18.026;2023-03-04T00:25:16;100764.55;;;2.29;73.19
76728;BME280;65652;53.132;18.026;2023-03-04T00:27:42;100763.91;;;2.27;73.38
76728;BME280;65652;53.132;18.026;2023-03-04T00:30:09;100754.24;;;2.25;73.38
76728;BME280;65652;53.132;18.026;2023-03-04T00:32:35;100741.59;;;2.25;73.68
76728;BME280;65652;53.132;18.026;2023-03-04T00:35:04;100734.69;;;2.23;73.62
76728;BME280;65652;53.132;18.026;2023-03-04T00:37:31;100723.77;;;2.22;73.60
76728;BME280;65652;53.132;18.026;2023-03-04T00:39:57;100718.05;;;2.22;73.43
76728;BME280;65652;53.132;18.026;2023-03-04T00:42:23;100720.70;;;2.21;73.53
76728;BME280;65652;53.132;18.026;2023-03-04T00:44:50;100723.75;;;2.19;73.56
76728;BME280;65652;53.132;18.026;2023-03-04T00:47:17;100714.70;;;2.19;73.56
76728;BME280;65652;53.132;18.026;2023-03-04T00:49:43;100714.85;;;2.20;73.58
76728;BME280;65652;53.132;18.026;2023-03-04T00:52:09;100710.48;;;2.20;73.76
76728;BME280;65652;53.132;18.026;2023-03-04T00:54:36;100716.48;;;2.22;73.73
76728;BME280;65652;53.132;18.026;2023-03-04T00:57:02;100711.83;;;2.24;73.79
76728;BME280;65652;53.132;18.026;2023-03-04T00:59:28;100718.34;;;2.26;73.58
76728;BME280;65652;53.132;18.026;2023-03-04T01:01:54;100722.73;;;2.28;73.53
76728;BME280;65652;53.132;18.026;2023-03-04T01:04:21;100723.41;;;2.32;73.36
76728;BME280;65652;53.132;18.026;2023-03-04T01:06:47;100718.05;;;2.35;73.54
76728;BME280;65652;53.132;18.026;2023-03-04T01:09:13;100716.48;;;2.38;73.33
76728;BME280;65652;53.132;18.026;2023-03-04T01:11:39;100713.04;;;2.40;73.22
76728;BME280;65652;53.132;18.026;2023-03-04T01:14:06;100718.98;;;2.43;73.17
76728;BME280;65652;53.132;18.026;2023-03-04T01:16:32;100714.86;;;2.45;73.19
76728;BME280;65652;53.132;18.026;2023-03-04T01:18:58;100725.91;;;2.47;72.97
76728;BME280;65652;53.132;18.026;2023-03-04T01:21:24;100719.55;;;2.49;73.01
76728;BME280;65652;53.132;18.026;2023-03-04T01:23:51;100711.96;;;2.51;72.99
76728;BME280;65652;53.132;18.026;2023-03-04T01:26:17;100709.67;;;2.51;73.05
76728;BME280;65652;53.132;18.026;2023-03-04T01:28:43;100707.13;;;2.53;73.20
76728;BME280;65652;53.132;18.026;2023-03-04T01:31:09;100711.05;;;2.54;73.07
76728;BME280;65652;53.132;18.026;2023-03-04T01:33:35;100714.13;;;2.55;73.16
76728;BME280;65652;53.132;18.026;2023-03-04T01:36:03;100708.28;;;2.57;73.22
76728;BME280;65652;53.132;18.026;2023-03-04T01:38:29;100701.09;;;2.58;73.17
76728;BME280;65652;53.132;18.026;2023-03-04T01:40:55;100702.98;;;2.58;73.23
76728;BME280;65652;53.132;18.026;2023-03-04T01:43:24;100699.80;;;2.60;73.22
76728;BME280;65652;53.132;18.026;2023-03-04T01:45:53;100697.10;;;2.61;73.40
76728;BME280;65652;53.132;18.026;2023-03-04T01:48:25;100696.54;;;2.62;73.35
76728;BME280;65652;53.132;18.026;2023-03-04T01:50:52;100697.50;;;2.63;73.46
76728;BME280;65652;53.132;18.026;2023-03-04T01:53:22;100689.45;;;2.64;73.43
76728;BME280;65652;53.132;18.026;2023-03-04T01:55:49;100688.08;;;2.64;73.67
76728;BME280;65652;53.132;18.026;2023-03-04T01:58:16;100684.16;;;2.65;73.60
76728;BME280;65652;53.132;18.026;2023-03-04T02:00:43;100686.51;;;2.67;73.74
76728;BME280;65652;53.132;18.026;2023-03-04T02:03:14;100683.49;;;2.67;73.74
76728;BME280;65652;53.132;18.026;2023-03-04T02:05:47;100683.09;;;2.69;73.77
76728;BME280;65652;53.132;18.026;2023-03-04T02:08:14;100676.52;;;2.71;74.02
76728;BME280;65652;53.132;18.026;2023-03-04T02:10:42;100674.54;;;2.72;73.81
76728;BME280;65652;53.132;18.026;2023-03-04T02:13:10;100677.34;;;2.74;73.77
76728;BME280;65652;53.132;18.026;2023-03-04T02:15:37;100678.43;;;2.77;73.75
76728;BME280;65652;53.132;18.026;2023-03-04T02:18:20;100670.63;;;2.79;73.72
76728;BME280;65652;53.132;18.026;2023-03-04T02:26:20;100658.38;;;2.83;73.73
76728;BME280;65652;53.132;18.026;2023-03-04T02:28:50;100654.86;;;2.84;73.87
76728;BME280;65652;53.132;18.026;2023-03-04T02:31:26;100657.81;;;2.84;73.79
76728;BME280;65652;53.132;18.026;2023-03-04T02:33:54;100655.64;;;2.85;74.03
76728;BME280;65652;53.132;18.026;2023-03-04T02:36:22;100649.36;;;2.85;73.98
76728;BME280;65652;53.132;18.026;2023-03-04T02:38:50;100647.21;;;2.86;74.07
76728;BME280;65652;53.132;18.026;2023-03-04T02:41:20;100647.77;;;2.86;74.07
76728;BME280;65652;53.132;18.026;2023-03-04T02:43:50;100643.37;;;2.86;74.03
76728;BME280;65652;53.132;18.026;2023-03-04T02:46:17;100644.08;;;2.86;73.94
76728;BME280;65652;53.132;18.026;2023-03-04T02:48:44;100642.27;;;2.87;73.97
76728;BME280;65652;53.132;18.026;2023-03-04T02:51:10;100639.33;;;2.87;74.01
76728;BME280;65652;53.132;18.026;2023-03-04T02:53:36;100639.15;;;2.87;74.00
76728;BME280;65652;53.132;18.026;2023-03-04T02:56:04;100642.79;;;2.87;74.09
76728;BME280;65652;53.132;18.026;2023-03-04T02:58:32;100637.38;;;2.87;74.15
76728;BME280;65652;53.132;18.026;2023-03-04T03:00:58;100641.61;;;2.87;74.27
76728;BME280;65652;53.132;18.026;2023-03-04T03:03:25;100639.74;;;2.86;74.16
76728;BME280;65652;53.132;18.026;2023-03-04T03:05:52;100638.72;;;2.85;74.06
76728;BME280;65652;53.132;18.026;2023-03-04T03:08:19;100630.84;;;2.86;74.20
76728;BME280;65652;53.132;18.026;2023-03-04T03:10:45;100628.73;;;2.86;74.21
76728;BME280;65652;53.132;18.026;2023-03-04T03:13:12;100623.14;;;2.86;74.07
76728;BME280;65652;53.132;18.026;2023-03-04T03:15:38;100621.06;;;2.86;74.10
76728;BME280;65652;53.132;18.026;2023-03-04T03:18:08;100615.87;;;2.85;74.28
76728;BME280;65652;53.132;18.026;2023-03-04T03:20:36;100615.22;;;2.85;74.16
76728;BME280;65652;53.132;18.026;2023-03-04T03:23:02;100615.21;;;2.85;74.05
76728;BME280;65652;53.132;18.026;2023-03-04T03:25:29;100616.23;;;2.85;74.16
76728;BME280;65652;53.132;18.026;2023-03-04T03:27:55;100617.30;;;2.85;74.12
76728;BME280;65652;53.132;18.026;2023-03-04T03:30:22;100616.85;;;2.87;74.12
76728;BME280;65652;53.132;18.026;2023-03-04T03:32:48;100615.54;;;2.88;74.08
76728;BME280;65652;53.132;18.026;2023-03-04T03:35:14;100617.11;;;2.88;74.14
76728;BME280;65652;53.132;18.026;2023-03-04T03:37:41;100614.85;;;2.88;74.12
76728;BME280;65652;53.132;18.026;2023-03-04T03:40:07;100611.56;;;2.88;74.28
76728;BME280;65652;53.132;18.026;2023-03-04T03:42:34;100610.30;;;2.88;74.19
76728;BME280;65652;53.132;18.026;2023-03-04T03:45:00;100603.05;;;2.87;74.07
76728;BME280;65652;53.132;18.026;2023-03-04T03:47:26;100613.30;;;2.88;74.08
76728;BME280;65652;53.132;18.026;2023-03-04T03:49:52;100604.23;;;2.88;74.10
76728;BME280;65652;53.132;18.026;2023-03-04T03:52:18;100603.59;;;2.87;74.13
76728;BME280;65652;53.132;18.026;2023-03-04T03:54:45;100608.78;;;2.87;74.09
76728;BME280;65652;53.132;18.026;2023-03-04T03:57:11;100609.09;;;2.88;74.04
76728;BME280;65652;53.132;18.026;2023-03-04T03:59:37;100612.17;;;2.89;74.20
76728;BME280;65652;53.132;18.026;2023-03-04T04:02:04;100609.63;;;2.88;74.26
76728;BME280;65652;53.132;18.026;2023-03-04T04:04:30;100609.42;;;2.88;74.13
76728;BME280;65652;53.132;18.026;2023-03-04T04:06:56;100608.41;;;2.88;74.26
76728;BME280;65652;53.132;18.026;2023-03-04T04:09:22;100610.06;;;2.86;74.08
76728;BME280;65652;53.132;18.026;2023-03-04T04:11:48;100605.81;;;2.88;74.28
76728;BME280;65652;53.132;18.026;2023-03-04T04:14:15;100609.77;;;2.89;74.26
76728;BME280;65652;53.132;18.026;2023-03-04T04:16:41;100610.99;;;2.89;74.26
76728;BME280;65652;53.132;18.026;2023-03-04T04:19:13;100607.39;;;2.87;74.33
76728;BME280;65652;53.132;18.026;2023-03-04T04:21:41;100608.27;;;2.87;74.46
76728;BME280;65652;53.132;18.026;2023-03-04T04:24:07;100607.95;;;2.87;74.52
76728;BME280;65652;53.132;18.026;2023-03-04T04:26:33;100603.48;;;2.86;74.50
76728;BME280;65652;53.132;18.026;2023-03-04T04:28:59;100606.18;;;2.87;74.34
76728;BME280;65652;53.132;18.026;2023-03-04T04:31:25;100602.85;;;2.88;74.45
76728;BME280;65652;53.132;18.026;2023-03-04T04:33:51;100601.64;;;2.87;74.46
76728;BME280;65652;53.132;18.026;2023-03-04T04:36:18;100593.79;;;2.87;74.39
76728;BME280;65652;53.132;18.026;2023-03-04T04:38:44;100594.41;;;2.89;74.41
76728;BME280;65652;53.132;18.026;2023-03-04T04:41:25;100587.08;;;2.89;74.45
76728;BME280;65652;53.132;18.026;2023-03-04T04:43:52;100578.91;;;2.88;74.56
76728;BME280;65652;53.132;18.026;2023-03-04T04:46:18;100579.73;;;2.89;74.36
76728;BME280;65652;53.132;18.026;2023-03-04T04:48:45;100577.78;;;2.90;74.46
76728;BME280;65652;53.132;18.026;2023-03-04T04:51:12;100572.15;;;2.90;74.41
76728;BME280;65652;53.132;18.026;2023-03-04T04:53:38;100571.30;;;2.90;74.31
76728;BME280;65652;53.132;18.026;2023-03-04T04:56:13;100572.80;;;2.92;74.22
76728;BME280;65652;53.132;18.026;2023-03-04T04:58:40;100564.38;;;2.92;74.37
76728;BME280;65652;53.132;18.026;2023-03-04T05:01:06;100566.27;;;2.93;74.22
76728;BME280;65652;53.132;18.026;2023-03-04T05:03:34;100569.15;;;2.94;74.25
76728;BME280;65652;53.132;18.026;2023-03-04T05:06:01;100568.67;;;2.96;74.10
76728;BME280;65652;53.132;18.026;2023-03-04T05:08:27;100565.70;;;2.96;74.24
76728;BME280;65652;53.132;18.026;2023-03-04T05:10:54;100563.73;;;2.97;74.31
76728;BME280;65652;53.132;18.026;2023-03-04T05:13:20;100561.31;;;2.97;74.38
76728;BME280;65652;53.132;18.026;2023-03-04T05:15:46;100560.42;;;2.97;74.40
76728;BME280;65652;53.132;18.026;2023-03-04T05:18:12;100553.42;;;2.98;74.37
76728;BME280;65652;53.132;18.026;2023-03-04T05:20:39;100550.03;;;2.99;74.41
76728;BME280;65652;53.132;18.026;2023-03-04T05:23:05;100550.38;;;2.99;74.49
76728;BME280;65652;53.132;18.026;2023-03-04T05:25:31;100551.25;;;2.99;74.35
76728;BME280;65652;53.132;18.026;2023-03-04T05:27:57;100551.84;;;3.01;74.35
76728;BME280;65652;53.132;18.026;2023-03-04T05:30:23;100553.35;;;3.02;74.31
76728;BME280;65652;53.132;18.026;2023-03-04T05:32:49;100556.09;;;3.03;74.27
76728;BME280;65652;53.132;18.026;2023-03-04T05:35:15;100552.20;;;3.03;74.46
76728;BME280;65652;53.132;18.026;2023-03-04T05:37:42;100552.47;;;3.05;74.33
76728;BME280;65652;53.132;18.026;2023-03-04T05:40:09;100550.66;;;3.06;74.53
76728;BME280;65652;53.132;18.026;2023-03-04T05:42:35;100552.66;;;3.08;74.42
76728;BME280;65652;53.132;18.026;2023-03-04T05:45:02;100548.27;;;3.08;74.48
76728;BME280;65652;53.132;18.026;2023-03-04T05:47:28;100552.44;;;3.08;74.55
76728;BME280;65652;53.132;18.026;2023-03-04T05:49:54;100552.20;;;3.09;74.58
76728;BME280;65652;53.132;18.026;2023-03-04T05:52:22;100554.23;;;3.10;74.57
76728;BME280;65652;53.132;18.026;2023-03-04T05:54:49;100555.75;;;3.11;74.57
76728;BME280;65652;53.132;18.026;2023-03-04T05:57:15;100553.17;;;3.13;74.50
76728;BME280;65652;53.132;18.026;2023-03-04T05:59:41;100551.70;;;3.15;74.51
76728;BME280;65652;53.132;18.026;2023-03-04T06:02:07;100552.85;;;3.16;74.47
76728;BME280;65652;53.132;18.026;2023-03-04T06:04:33;100551.55;;;3.17;74.44
76728;BME280;65652;53.132;18.026;2023-03-04T06:06:59;100550.59;;;3.19;74.44
76728;BME280;65652;53.132;18.026;2023-03-04T06:09:26;100552.48;;;3.20;74.60
76728;BME280;65652;53.132;18.026;2023-03-04T06:11:52;100546.84;;;3.20;74.66
76728;BME280;65652;53.132;18.026;2023-03-04T06:14:18;100548.69;;;3.21;74.63
76728;BME280;65652;53.132;18.026;2023-03-04T06:16:44;100549.27;;;3.23;74.54
76728;BME280;65652;53.132;18.026;2023-03-04T06:19:10;100545.07;;;3.24;74.57
76728;BME280;65652;53.132;18.026;2023-03-04T06:21:37;100544.65;;;3.25;74.42
76728;BME280;65652;53.132;18.026;2023-03-04T06:24:03;100547.88;;;3.26;74.66
76728;BME280;65652;53.132;18.026;2023-03-04T06:26:30;100549.45;;;3.29;74.46
76728;BME280;65652;53.132;18.026;2023-03-04T06:28:56;100549.73;;;3.30;74.43
76728;BME280;65652;53.132;18.026;2023-03-04T06:31:22;100543.39;;;3.31;74.55
76728;BME280;65652;53.132;18.026;2023-03-04T06:33:51;100547.80;;;3.33;74.51
76728;BME280;65652;53.132;18.026;2023-03-04T06:36:17;100546.13;;;3.35;74.47
76728;BME280;65652;53.132;18.026;2023-03-04T06:38:44;100546.64;;;3.35;74.44
76728;BME280;65652;53.132;18.026;2023-03-04T06:41:11;100550.30;;;3.35;74.52
76728;BME280;65652;53.132;18.026;2023-03-04T06:43:38;100547.55;;;3.35;74.68
76728;BME280;65652;53.132;18.026;2023-03-04T06:46:06;100544.08;;;3.34;74.58
76728;BME280;65652;53.132;18.026;2023-03-04T06:48:33;100545.80;;;3.34;74.67
76728;BME280;65652;53.132;18.026;2023-03-04T06:51:07;100547.37;;;3.38;74.57
76728;BME280;65652;53.132;18.026;2023-03-04T06:53:34;100549.20;;;3.40;74.51
76728;BME280;65652;53.132;18.026;2023-03-04T06:56:00;100549.54;;;3.39;74.65
76728;BME280;65652;53.132;18.026;2023-03-04T06:58:27;100552.52;;;3.39;74.74
76728;BME280;65652;53.132;18.026;2023-03-04T07:00:53;100554.44;;;3.39;74.84
76728;BME280;65652;53.132;18.026;2023-03-04T07:03:20;100556.11;;;3.40;74.79
76728;BME280;65652;53.132;18.026;2023-03-04T07:05:46;100554.17;;;3.43;74.84
76728;BME280;65652;53.132;18.026;2023-03-04T07:08:12;100546.02;;;3.42;75.06
76728;BME280;65652;53.132;18.026;2023-03-04T07:10:38;100550.96;;;3.42;74.96
76728;BME280;65652;53.132;18.026;2023-03-04T07:13:05;100554.60;;;3.42;74.99
76728;BME280;65652;53.132;18.026;2023-03-04T07:15:31;100550.82;;;3.44;74.92
76728;BME280;65652;53.132;18.026;2023-03-04T07:17:57;100552.61;;;3.46;75.05
76728;BME280;65652;53.132;18.026;2023-03-04T07:20:23;100550.23;;;3.48;75.30
76728;BME280;65652;53.132;18.026;2023-03-04T07:22:50;100550.17;;;3.46;75.50
76728;BME280;65652;53.132;18.026;2023-03-04T07:25:16;100547.77;;;3.45;75.51
76728;BME280;65652;53.132;18.026;2023-03-04T07:27:42;100552.35;;;3.45;75.76
76728;BME280;65652;53.132;18.026;2023-03-04T07:30:09;100546.69;;;3.43;75.91
76728;BME280;65652;53.132;18.026;2023-03-04T07:32:36;100546.42;;;3.42;75.99
76728;BME280;65652;53.132;18.026;2023-03-04T07:35:02;100544.15;;;3.42;76.18
76728;BME280;65652;53.132;18.026;2023-03-04T07:37:29;100540.16;;;3.41;76.42
76728;BME280;65652;53.132;18.026;2023-03-04T07:39:55;100544.09;;;3.40;76.52
76728;BME280;65652;53.132;18.026;2023-03-04T07:42:21;100535.02;;;3.40;76.76
76728;BME280;65652;53.132;18.026;2023-03-04T07:44:51;100527.88;;;3.39;76.71
76728;BME280;65652;53.132;18.026;2023-03-04T07:47:20;100523.06;;;3.41;76.84
76728;BME280;65652;53.132;18.026;2023-03-04T07:49:46;100523.68;;;3.42;76.93
76728;BME280;65652;53.132;18.026;2023-03-04T07:52:12;100521.98;;;3.42;77.35
76728;BME280;65652;53.132;18.026;2023-03-04T07:54:39;100522.80;;;3.40;77.34
76728;BME280;65652;53.132;18.026;2023-03-04T07:57:05;100521.05;;;3.40;77.36
76728;BME280;65652;53.132;18.026;2023-03-04T07:59:31;100514.86;;;3.41;77.30
76728;BME280;65652;53.132;18.026;2023-03-04T08:01:57;100520.62;;;3.41;77.50
76728;BME280;65652;53.132;18.026;2023-03-04T08:04:24;100515.08;;;3.41;77.74
76728;BME280;65652;53.132;18.026;2023-03-04T08:06:50;100515.49;;;3.42;77.58
76728;BME280;65652;53.132;18.026;2023-03-04T08:09:16;100508.05;;;3.44;77.73
76728;BME280;65652;53.132;18.026;2023-03-04T08:11:42;100511.11;;;3.45;77.76
76728;BME280;65652;53.132;18.026;2023-03-04T08:14:11;100511.56;;;3.46;77.73
76728;BME280;65652;53.132;18.026;2023-03-04T08:16:37;100506.95;;;3.48;77.59
76728;BME280;65652;53.132;18.026;2023-03-04T08:19:05;100509.41;;;3.50;77.66
76728;BME280;65652;53.132;18.026;2023-03-04T08:21:32;100503.64;;;3.51;78.16
76728;BME280;65652;53.132;18.026;2023-03-04T08:24:00;100501.58;;;3.53;78.42
76728;BME280;65652;53.132;18.026;2023-03-04T08:26:44;100495.55;;;3.57;78.52
76728;BME280;65652;53.132;18.026;2023-03-04T08:29:20;100496.10;;;3.57;78.52
76728;BME280;65652;53.132;18.026;2023-03-04T08:31:48;100495.70;;;3.54;78.78
76728;BME280;65652;53.132;18.026;2023-03-04T08:34:16;100489.29;;;3.51;79.02
76728;BME280;65652;53.132;18.026;2023-03-04T08:36:43;100491.05;;;3.51;79.04
76728;BME280;65652;53.132;18.026;2023-03-04T08:39:11;100495.80;;;3.50;79.42
76728;BME280;65652;53.132;18.026;2023-03-04T08:41:38;100489.50;;;3.51;79.04
76728;BME280;65652;53.132;18.026;2023-03-04T08:44:05;100493.70;;;3.53;79.20
76728;BME280;65652;53.132;18.026;2023-03-04T08:46:33;100491.88;;;3.54;79.41
76728;BME280;65652;53.132;18.026;2023-03-04T08:48:59;100489.66;;;3.56;79.44
76728;BME280;65652;53.132;18.026;2023-03-04T08:51:25;100488.46;;;3.59;79.64
76728;BME280;65652;53.132;18.026;2023-03-04T08:53:51;100487.95;;;3.61;79.51
76728;BME280;65652;53.132;18.026;2023-03-04T08:56:18;100486.66;;;3.65;79.65
76728;BME280;65652;53.132;18.026;2023-03-04T08:58:44;100490.02;;;3.67;79.85
76728;BME280;65652;53.132;18.026;2023-03-04T09:01:12;100491.48;;;3.66;79.82
76728;BME280;65652;53.132;18.026;2023-03-04T09:03:39;100487.26;;;3.67;79.86
76728;BME280;65652;53.132;18.026;2023-03-04T09:06:07;100495.39;;;3.65;80.05
76728;BME280;65652;53.132;18.026;2023-03-04T09:08:34;100494.56;;;3.62;80.19
76728;BME280;65652;53.132;18.026;2023-03-04T09:11:01;100496.32;;;3.61;80.07
76728;BME280;65652;53.132;18.026;2023-03-04T09:13:29;100499.85;;;3.61;80.12
76728;BME280;65652;53.132;18.026;2023-03-04T09:15:56;100500.09;;;3.60;80.32
76728;BME280;65652;53.132;18.026;2023-03-04T09:18:23;100504.70;;;3.59;80.32
76728;BME280;65652;53.132;18.026;2023-03-04T09:20:50;100507.02;;;3.58;80.38
76728;BME280;65652;53.132;18.026;2023-03-04T09:23:17;100510.39;;;3.57;80.66
76728;BME280;65652;53.132;18.026;2023-03-04T09:25:44;100516.10;;;3.58;80.58
76728;BME280;65652;53.132;18.026;2023-03-04T09:28:12;100522.85;;;3.59;80.54
76728;BME280;65652;53.132;18.026;2023-03-04T09:30:39;100524.49;;;3.60;80.38
76728;BME280;65652;53.132;18.026;2023-03-04T09:33:05;100523.20;;;3.61;80.37
76728;BME280;65652;53.132;18.026;2023-03-04T09:35:31;100519.73;;;3.58;80.06
76728;BME280;65652;53.132;18.026;2023-03-04T09:37:58;100510.83;;;3.53;80.15
76728;BME280;65652;53.132;18.026;2023-03-04T09:40:36;100505.36;;;3.48;80.29
76728;BME280;65652;53.132;18.026;2023-03-04T09:43:06;100503.33;;;3.44;80.79
76728;BME280;65652;53.132;18.026;2023-03-04T09:45:41;100502.80;;;3.44;80.51
76728;BME280;65652;53.132;18.026;2023-03-04T09:48:16;100502.26;;;3.45;80.04
76728;BME280;65652;53.132;18.026;2023-03-04T09:53:57;100494.63;;;3.50;79.60
76728;BME280;65652;53.132;18.026;2023-03-04T09:56:27;100496.29;;;3.54;79.32
76728;BME280;65652;53.132;18.026;2023-03-04T09:59:22;100490.23;;;3.56;78.66
76728;BME280;65652;53.132;18.026;2023-03-04T10:01:55;100494.83;;;3.58;78.09
76728;BME280;65652;53.132;18.026;2023-03-04T10:04:31;100500.11;;;3.60;77.83
76728;BME280;65652;53.132;18.026;2023-03-04T10:07:01;100506.44;;;3.61;77.35
76728;BME280;65652;53.132;18.026;2023-03-04T10:09:46;100502.88;;;3.63;77.14
76728;BME280;65652;53.132;18.026;2023-03-04T10:12:18;100498.07;;;3.67;76.96
76728;BME280;65652;53.132;18.026;2023-03-04T10:14:48;100499.98;;;3.70;76.82
76728;BME280;65652;53.132;18.026;2023-03-04T10:22:48;100500.45;;;3.82;76.68
76728;BME280;65652;53.132;18.026;2023-03-04T10:25:30;100493.56;;;3.88;76.20
76728;BME280;65652;53.132;18.026;2023-03-04T10:28:04;100495.25;;;3.95;75.97
76728;BME280;65652;53.132;18.026;2023-03-04T10:33:13;100494.14;;;4.06;75.68
76728;BME280;65652;53.132;18.026;2023-03-04T10:35:44;100491.02;;;4.12;75.73
76728;BME280;65652;53.132;18.026;2023-03-04T10:38:12;100495.30;;;4.18;76.06
76728;BME280;65652;53.132;18.026;2023-03-04T10:40:40;100492.91;;;4.26;75.67
76728;BME280;65652;53.132;18.026;2023-03-04T10:43:33;100501.38;;;4.32;75.59
76728;BME280;65652;53.132;18.026;2023-03-04T10:45:59;100499.89;;;4.39;75.50
76728;BME280;65652;53.132;18.026;2023-03-04T10:48:28;100500.56;;;4.47;75.77
76728;BME280;65652;53.132;18.026;2023-03-04T10:51:11;100502.05;;;4.57;76.01
76728;BME280;65652;53.132;18.026;2023-03-04T10:53:40;100505.41;;;4.69;75.99
76728;BME280;65652;53.132;18.026;2023-03-04T11:01:53;100504.91;;;5.10;70.44
76728;BME280;65652;53.132;18.026;2023-03-04T11:04:22;100511.11;;;5.30;68.49
76728;BME280;65652;53.132;18.026;2023-03-04T11:06:50;100509.94;;;5.44;67.55
76728;BME280;65652;53.132;18.026;2023-03-04T11:09:26;100508.34;;;5.54;66.93
76728;BME280;65652;53.132;18.026;2023-03-04T11:11:55;100514.04;;;5.63;65.21
76728;BME280;65652;53.132;18.026;2023-03-04T11:14:26;100519.20;;;5.66;64.09
76728;BME280;65652;53.132;18.026;2023-03-04T11:17:02;100518.67;;;5.71;63.08
76728;BME280;65652;53.132;18.026;2023-03-04T11:19:34;100512.23;;;5.73;60.11
76728;BME280;65652;53.132;18.026;2023-03-04T11:22:03;100517.05;;;5.75;60.57
76728;BME280;65652;53.132;18.026;2023-03-04T11:24:33;100514.88;;;5.78;60.05
76728;BME280;65652;53.132;18.026;2023-03-04T11:27:04;100516.14;;;5.81;58.48
76728;BME280;65652;53.132;18.026;2023-03-04T11:29:44;100517.13;;;5.84;57.94
76728;BME280;65652;53.132;18.026;2023-03-04T11:32:26;100520.23;;;5.90;59.73
76728;BME280;65652;53.132;18.026;2023-03-04T11:37:53;100519.50;;;6.07;59.40
76728;BME280;65652;53.132;18.026;2023-03-04T11:40:46;100520.03;;;6.16;59.74
76728;BME280;65652;53.132;18.026;2023-03-04T11:43:28;100523.42;;;6.25;57.70
76728;BME280;65652;53.132;18.026;2023-03-04T12:03:17;100531.13;;;6.73;55.87
76728;BME280;65652;53.132;18.026;2023-03-04T12:14:29;100533.48;;;7.09;54.15
76728;BME280;65652;53.132;18.026;2023-03-04T12:23:34;100528.63;;;8.37;50.19
76728;BME280;65652;53.132;18.026;2023-03-04T12:31:41;100537.94;;;9.75;46.92
76728;BME280;65652;53.132;18.026;2023-03-04T12:37:22;100541.08;;;10.41;46.65
76728;BME280;65652;53.132;18.026;2023-03-04T12:40:26;100538.27;;;10.88;46.11
76728;BME280;65652;53.132;18.026;2023-03-04T12:43:10;100534.36;;;11.20;42.93
76728;BME280;65652;53.132;18.026;2023-03-04T12:48:36;100536.58;;;11.80;41.34
76728;BME280;65652;53.132;18.026;2023-03-04T12:51:39;100534.16;;;11.92;40.94
76728;BME280;65652;53.132;18.026;2023-03-04T12:54:40;100536.38;;;11.91;38.74
76728;BME280;65652;53.132;18.026;2023-03-04T12:57:25;100548.15;;;11.62;41.20
76728;BME280;65652;53.132;18.026;2023-03-04T12:59:57;100548.27;;;11.61;40.57
76728;BME280;65652;53.132;18.026;2023-03-04T13:10:29;100542.23;;;12.09;38.09
76728;BME280;65652;53.132;18.026;2023-03-04T13:13:00;100539.27;;;12.23;37.44
76728;BME280;65652;53.132;18.026;2023-03-04T13:15:36;100538.77;;;12.21;34.74
76728;BME280;65652;53.132;18.026;2023-03-04T13:20:44;100535.11;;;12.23;34.83
76728;BME280;65652;53.132;18.026;2023-03-04T13:35:50;100544.87;;;13.39;30.78
76728;BME280;65652;53.132;18.026;2023-03-04T13:51:38;100529.00;;;17.56;26.94
76728;BME280;65652;53.132;18.026;2023-03-04T13:54:12;100528.60;;;18.17;25.29
76728;BME280;65652;53.132;18.026;2023-03-04T14:01:47;100527.93;;;13.96;24.66
76728;BME280;65652;53.132;18.026;2023-03-04T14:04:19;100531.03;;;13.78;25.71
76728;BME280;65652;53.132;18.026;2023-03-04T14:06:48;100533.59;;;13.60;26.39
76728;BME280;65652;53.132;18.026;2023-03-04T14:09:22;100534.79;;;13.45;27.22
76728;BME280;65652;53.132;18.026;2023-03-04T14:11:50;100534.63;;;13.45;26.22
76728;BME280;65652;53.132;18.026;2023-03-04T14:14:20;100536.83;;;12.42;27.36
76728;BME280;65652;53.132;18.026;2023-03-04T14:16:56;100536.82;;;13.67;27.46
76728;BME280;65652;53.132;18.026;2023-03-04T14:19:29;100536.66;;;13.82;26.52
76728;BME280;65652;53.132;18.026;2023-03-04T14:21:56;100536.84;;;14.86;26.69
76728;BME280;65652;53.132;18.026;2023-03-04T14:24:24;100537.58;;;14.52;24.94
76728;BME280;65652;53.132;18.026;2023-03-04T14:27:10;100537.48;;;13.40;25.23
76728;BME280;65652;53.132;18.026;2023-03-04T14:29:37;100541.80;;;12.58;27.04
76728;BME280;65652;53.132;18.026;2023-03-04T14:32:04;100541.58;;;12.18;27.34
76728;BME280;65652;53.132;18.026;2023-03-04T14:34:32;100541.20;;;11.09;27.77
76728;BME280;65652;53.132;18.026;2023-03-04T14:37:00;100554.34;;;9.87;29.70
76728;BME280;65652;53.132;18.026;2023-03-04T14:39:29;100556.69;;;9.58;30.44
76728;BME280;65652;53.132;18.026;2023-03-04T14:42:02;100561.34;;;9.33;30.30
76728;BME280;65652;53.132;18.026;2023-03-04T14:44:40;100565.64;;;9.18;30.28
76728;BME280;65652;53.132;18.026;2023-03-04T14:47:18;100570.08;;;9.09;30.51
76728;BME280;65652;53.132;18.026;2023-03-04T14:49:45;100570.48;;;8.83;30.79